<?xml version="1.0" encoding="UTF-8" standalone="no" ?><gpx xmlns="http://www.topografix.com/GPX/1/1" xmlns:gpxx="http://www.garmin.com/xmlschemas/GpxExtensions/v3" xmlns:wptx1="http://www.garmin.com/xmlschemas/WaypointExtension/v1" xmlns:gpxtpx="http://www.garmin.com/xmlschemas/TrackPointExtension/v1" creator="eTrex 30" version="1.1" xmlns:xsi="http://www.w3.org/2001/XMLSchema-instance" xsi:schemaLocation="http://www.topografix.com/GPX/1/1 http://www.topografix.com/GPX/1/1/gpx.xsd http://www.garmin.com/xmlschemas/GpxExtensions/v3 http://www8.garmin.com/xmlschemas/GpxExtensionsv3.xsd http://www.garmin.com/xmlschemas/WaypointExtension/v1 http://www8.garmin.com/xmlschemas/WaypointExtensionv1.xsd http://www.garmin.com/xmlschemas/TrackPointExtension/v1 http://www.garmin.com/xmlschemas/TrackPointExtensionv1.xsd"><metadata><link href="http://www.garmin.com"><text>Garmin International</text></link><time>2012-08-20T22:30:27Z</time></metadata><trk><name>2012-03-05 17:03:32 Auto</name><extensions><gpxx:TrackExtension><gpxx:DisplayColor>Cyan</gpxx:DisplayColor></gpxx:TrackExtension></extensions><trkseg><trkpt lat="-5.1913678553" lon="-80.6157520507"><ele>63.10</ele><time>2012-03-05T22:03:32Z</time></trkpt><trkpt lat="-5.1913647540" lon="-80.6157570798"><ele>63.10</ele><time>2012-03-05T22:03:33Z</time></trkpt><trkpt lat="-5.1912699547" lon="-80.6158004142"><ele>63.10</ele><time>2012-03-05T22:03:58Z</time></trkpt><trkpt lat="-5.1911940984" lon="-80.6158532202"><ele>63.10</ele><time>2012-03-05T22:04:22Z</time></trkpt><trkpt lat="-5.1912184898" lon="-80.6158688944"><ele>63.10</ele><time>2012-03-05T22:04:42Z</time></trkpt><trkpt lat="-5.1912319008" lon="-80.6158134062"><ele>63.10</ele><time>2012-03-05T22:05:17Z</time></trkpt><trkpt lat="-5.1913300529" lon="-80.6157668866"><ele>62.14</ele><time>2012-03-05T22:05:39Z</time></trkpt><trkpt lat="-5.1912895683" lon="-80.6157717481"><ele>62.14</ele><time>2012-03-05T22:05:45Z</time></trkpt><trkpt lat="-5.1912773307" lon="-80.6157731730"><ele>62.14</ele><time>2012-03-05T22:05:46Z</time></trkpt><trkpt lat="-5.1910458226" lon="-80.6158642005"><ele>62.14</ele><time>2012-03-05T22:06:05Z</time></trkpt><trkpt lat="-5.1910578925" lon="-80.6158629432"><ele>62.14</ele><time>2012-03-05T22:06:11Z</time></trkpt><trkpt lat="-5.1912132092" lon="-80.6158236321"><ele>61.18</ele><time>2012-03-05T22:06:24Z</time></trkpt><trkpt lat="-5.1912353374" lon="-80.6158432458"><ele>60.22</ele><time>2012-03-05T22:06:33Z</time></trkpt><trkpt lat="-5.1912353374" lon="-80.6158432458"><ele>60.22</ele><time>2012-03-05T22:06:39Z</time></trkpt></trkseg><trkseg><trkpt lat="-5.1912247762" lon="-80.6158372108"><ele>59.26</ele><time>2012-03-05T22:06:49Z</time></trkpt><trkpt lat="-5.1912148017" lon="-80.6158484425"><ele>56.86</ele><time>2012-03-05T22:06:52Z</time></trkpt><trkpt lat="-5.1912142150" lon="-80.6158529688"><ele>55.89</ele><time>2012-03-05T22:06:54Z</time></trkpt><trkpt lat="-5.1912000496" lon="-80.6158663798"><ele>52.53</ele><time>2012-03-05T22:07:00Z</time></trkpt><trkpt lat="-5.1912000496" lon="-80.6158663798"><ele>52.05</ele><time>2012-03-05T22:07:33Z</time></trkpt><trkpt lat="-5.1911998820" lon="-80.6158672180"><ele>52.05</ele><time>2012-03-05T22:08:03Z</time></trkpt><trkpt lat="-5.1911982894" lon="-80.6158668827"><ele>51.57</ele><time>2012-03-05T22:08:33Z</time></trkpt><trkpt lat="-5.1911985409" lon="-80.6158669665"><ele>51.57</ele><time>2012-03-05T22:09:02Z</time></trkpt><trkpt lat="-5.1911985409" lon="-80.6158669665"><ele>51.57</ele><time>2012-03-05T22:09:39Z</time></trkpt><trkpt lat="-5.1911985409" lon="-80.6158668827"><ele>51.57</ele><time>2012-03-05T22:10:13Z</time></trkpt><trkpt lat="-5.1912187412" lon="-80.6158636138"><ele>50.61</ele><time>2012-03-05T22:10:52Z</time></trkpt><trkpt lat="-5.1912724692" lon="-80.6158573274"><ele>47.24</ele><time>2012-03-05T22:10:59Z</time></trkpt><trkpt lat="-5.1913121995" lon="-80.6158362888"><ele>43.88</ele><time>2012-03-05T22:11:08Z</time></trkpt><trkpt lat="-5.1913478225" lon="-80.6158388034"><ele>40.99</ele><time>2012-03-05T22:11:37Z</time></trkpt><trkpt lat="-5.1913326513" lon="-80.6158457603"><ele>40.99</ele><time>2012-03-05T22:12:02Z</time></trkpt><trkpt lat="-5.1912982855" lon="-80.6158512086"><ele>40.99</ele><time>2012-03-05T22:12:33Z</time></trkpt><trkpt lat="-5.1913484093" lon="-80.6161924358"><ele>40.99</ele><time>2012-03-05T22:13:08Z</time></trkpt><trkpt lat="-5.1913224254" lon="-80.6159420684"><ele>40.99</ele><time>2012-03-05T22:13:32Z</time></trkpt><trkpt lat="-5.1913293824" lon="-80.6158648711"><ele>42.92</ele><time>2012-03-05T22:13:51Z</time></trkpt><trkpt lat="-5.1912944298" lon="-80.6158507057"><ele>46.28</ele><time>2012-03-05T22:14:10Z</time></trkpt><trkpt lat="-5.1912907418" lon="-80.6158366241"><ele>43.40</ele><time>2012-03-05T22:14:23Z</time></trkpt><trkpt lat="-5.1912846230" lon="-80.6158369593"><ele>44.84</ele><time>2012-03-05T22:15:00Z</time></trkpt><trkpt lat="-5.1912844554" lon="-80.6158377975"><ele>44.84</ele><time>2012-03-05T22:15:31Z</time></trkpt><trkpt lat="-5.1912844554" lon="-80.6158377975"><ele>44.84</ele><time>2012-03-05T22:16:02Z</time></trkpt><trkpt lat="-5.1912849583" lon="-80.6158393063"><ele>44.84</ele><time>2012-03-05T22:16:36Z</time></trkpt><trkpt lat="-5.1912856288" lon="-80.6158398930"><ele>44.84</ele><time>2012-03-05T22:17:11Z</time></trkpt><trkpt lat="-5.1912856288" lon="-80.6158351991"><ele>44.84</ele><time>2012-03-05T22:17:46Z</time></trkpt><trkpt lat="-5.1912871376" lon="-80.6158305053"><ele>44.84</ele><time>2012-03-05T22:18:20Z</time></trkpt><trkpt lat="-5.1912868861" lon="-80.6158300024"><ele>44.84</ele><time>2012-03-05T22:18:55Z</time></trkpt><trkpt lat="-5.1912894845" lon="-80.6158267334"><ele>44.84</ele><time>2012-03-05T22:19:27Z</time></trkpt><trkpt lat="-5.1912894845" lon="-80.6158267334"><ele>44.36</ele><time>2012-03-05T22:19:58Z</time></trkpt><trkpt lat="-5.1912637521" lon="-80.6158427428"><ele>44.36</ele><time>2012-03-05T22:20:24Z</time></trkpt><trkpt lat="-5.1912637521" lon="-80.6158427428"><ele>44.36</ele><time>2012-03-05T22:20:42Z</time></trkpt><trkpt lat="-5.1912661828" lon="-80.6158360373"><ele>44.36</ele><time>2012-03-05T22:21:15Z</time></trkpt><trkpt lat="-5.1912661828" lon="-80.6158299185"><ele>44.36</ele><time>2012-03-05T22:21:51Z</time></trkpt><trkpt lat="-5.1912680268" lon="-80.6158236321"><ele>44.36</ele><time>2012-03-05T22:22:23Z</time></trkpt><trkpt lat="-5.1912680268" lon="-80.6158236321"><ele>43.88</ele><time>2012-03-05T22:22:57Z</time></trkpt><trkpt lat="-5.1912682783" lon="-80.6158230454"><ele>43.88</ele><time>2012-03-05T22:23:28Z</time></trkpt><trkpt lat="-5.1912732236" lon="-80.6158252247"><ele>43.88</ele><time>2012-03-05T22:24:01Z</time></trkpt><trkpt lat="-5.1912756544" lon="-80.6158270687"><ele>43.88</ele><time>2012-03-05T22:24:33Z</time></trkpt><trkpt lat="-5.1912756544" lon="-80.6158270687"><ele>43.88</ele><time>2012-03-05T22:25:01Z</time></trkpt><trkpt lat="-5.1912752353" lon="-80.6158261467"><ele>43.88</ele><time>2012-03-05T22:25:08Z</time></trkpt></trkseg></trk></gpx>